หน้าหลัก
METAR-TAF:

METAR-TAF

ท่าอากาศยาน :

บริสตอล, อังกฤษ

ละติจูด: 51-23N, ลองจิจูด: 002-43W, ความสูง: 189 ม.

การสังเกตสภาพอากาศปัจจุบัน

รายงานได้ทำขึ้นเมื่อ 25 นาทีที่แล้ว ณ เวลา 01:50 UTC
ลม 1 นอตจากใต้/ตะวันตกเฉียงใต้
อุณหภูมิ 15°C
ความชื้น 100%
ความกดอากาศ 1019 hPa
ทัศนวิสัย 10 กม. หรือมากกว่า

METAR: EGGD 190150Z AUTO 21001KT 9999 NCD 15/15 Q1019

เวลา: 03:15 (02:15 UTC)

การพยากรณ์

รายงานได้ทำขึ้นเมื่อ 3 ชั่วโมงและ 16 นาทีที่แล้ว ณ เวลา 22:59 UTC
การพยากรณ์มีผลตั้งแต่วันที่ 19 ณ เวลา 00 UTC จนถึงวันที่ 19 ณ เวลา 24 UTC
ลม 5 นอตจากใต้/ตะวันตกเฉียงใต้
ทัศนวิสัย 10 กม. หรือมากกว่า
มีเมฆน้อยที่ความสูง 4000 ฟุต
ชั่วคราว
ตั้งแต่วันที่ 19 ณ เวลา 00 UTC จนถึงวันที่ 19 ณ เวลา 07 UTC
ทัศนวิสัย: 7000 ม.
ความน่าจะเป็น 40%
ตั้งแต่วันที่ 19 ณ เวลา 03 UTC จนถึงวันที่ 19 ณ เวลา 06 UTC
ทัศนวิสัย: 3000 ม.
หมอกน้ำค้าง
ชั่วคราว
ตั้งแต่วันที่ 19 ณ เวลา 20 UTC จนถึงวันที่ 19 ณ เวลา 24 UTC
มีเมฆเป็นส่วนมากเว้นเป็นระยะที่ความสูง 700 ฟุต

TAF: EGGD 182259Z 1900/1924 20005KT 9999 FEW040 TEMPO 1900/1907 7000 PROB40 1903/1906 3000 BR TEMPO 1920/1924 BKN007

สังเกตการณ์สภาพอากาศและพยากรณ์อากาศของสนามบินมากกว่า 4000 แห่ง (รายงาน METAR และ TAF).

สถานีที่ดูได้จะแสดงไว้ด้วยจุดสีเหลืองและสีแดงบนแผนที่.

เลื่อนเมาส์ไปเหนือจุดเพื่อดูชื่อสถานี.

แล้วคลิกเพื่อดูสังเกตการณ์และการพยากรณ์สภาพอากาศ.

ในการเปลี่ยนแผนที่: คลิกที่ปุ่มสีเขียวที่มีกากบาทสีดำเพื่อซูมเข้า; ที่ปุ่มสีเขียวที่มีขีดเพื่อซูมออก; หรือที่ลูกศรสีเขียวเพื่อไปยังแผนที่ที่อยู่ติดกัน.


METAR-TAF: